sensor_id;sensor_type;location;lat;lon;timestamp;temperature;humidity
23540;DHT22;11947;50.810;4.394;2022-09-24T00:10:03;14.60;99.90
23540;DHT22;11947;50.810;4.394;2022-09-24T00:59:19;14.20;99.90
23540;DHT22;11947;50.810;4.394;2022-09-24T01:01:54;14.00;99.90
23540;DHT22;11947;50.810;4.394;2022-09-24T01:04:36;13.90;99.90
23540;DHT22;11947;50.810;4.394;2022-09-24T01:07:19;13.90;99.90
23540;DHT22;11947;50.810;4.394;2022-09-24T01:10:36;14.00;99.90
23540;DHT22;11947;50.810;4.394;2022-09-24T01:13:35;14.10;99.90
23540;DHT22;11947;50.810;4.394;2022-09-24T01:16:19;13.90;99.90
23540;DHT22;11947;50.810;4.394;2022-09-24T01:25:01;14.00;99.90
23540;DHT22;11947;50.810;4.394;2022-09-24T01:28:00;13.90;99.90
23540;DHT22;11947;50.810;4.394;2022-09-24T01:30:26;13.90;99.90
23540;DHT22;11947;50.810;4.394;2022-09-24T01:36:48;14.10;99.90
23540;DHT22;11947;50.810;4.394;2022-09-24T01:39:21;13.90;99.90
23540;DHT22;11947;50.810;4.394;2022-09-24T01:41:59;13.90;99.90
23540;DHT22;11947;50.810;4.394;2022-09-24T01:44:27;13.90;99.90
23540;DHT22;11947;50.810;4.394;2022-09-24T01:47:28;13.80;99.90
23540;DHT22;11947;50.810;4.394;2022-09-24T01:50:38;13.90;99.90
23540;DHT22;11947;50.810;4.394;2022-09-24T01:53:31;13.80;99.90
23540;DHT22;11947;50.810;4.394;2022-09-24T01:56:19;13.90;99.90
23540;DHT22;11947;50.810;4.394;2022-09-24T01:58:59;14.10;99.90
23540;DHT22;11947;50.810;4.394;2022-09-24T02:01:49;14.00;99.90
23540;DHT22;11947;50.810;4.394;2022-09-24T02:04:45;14.00;99.90
23540;DHT22;11947;50.810;4.394;2022-09-24T02:07:47;14.00;99.90
23540;DHT22;11947;50.810;4.394;2022-09-24T02:10:19;14.10;99.90
23540;DHT22;11947;50.810;4.394;2022-09-24T02:12:53;14.00;99.90
23540;DHT22;11947;50.810;4.394;2022-09-24T02:16:08;14.00;99.90
23540;DHT22;11947;50.810;4.394;2022-09-24T02:18:39;14.00;99.90
23540;DHT22;11947;50.810;4.394;2022-09-24T02:21:11;14.10;99.90
23540;DHT22;11947;50.810;4.394;2022-09-24T02:23:42;14.30;99.90
23540;DHT22;11947;50.810;4.394;2022-09-24T02:26:08;14.20;99.90
23540;DHT22;11947;50.810;4.394;2022-09-24T02:28:40;14.20;99.90
23540;DHT22;11947;50.810;4.394;2022-09-24T02:31:29;14.30;99.90
23540;DHT22;11947;50.810;4.394;2022-09-24T02:33:58;14.10;99.90
23540;DHT22;11947;50.810;4.394;2022-09-24T02:36:44;14.10;99.90
23540;DHT22;11947;50.810;4.394;2022-09-24T02:39:09;14.00;99.90
23540;DHT22;11947;50.810;4.394;2022-09-24T02:41:35;14.00;99.90
23540;DHT22;11947;50.810;4.394;2022-09-24T02:44:02;13.90;99.90
23540;DHT22;11947;50.810;4.394;2022-09-24T02:46:28;13.90;99.90
23540;DHT22;11947;50.810;4.394;2022-09-24T02:48:54;14.00;99.90
23540;DHT22;11947;50.810;4.394;2022-09-24T02:51:19;14.00;99.90
23540;DHT22;11947;50.810;4.394;2022-09-24T02:53:46;14.00;99.90
23540;DHT22;11947;50.810;4.394;2022-09-24T02:56:12;13.90;99.90
23540;DHT22;11947;50.810;4.394;2022-09-24T02:58:37;13.90;99.90
23540;DHT22;11947;50.810;4.394;2022-09-24T03:01:04;13.90;99.90
23540;DHT22;11947;50.810;4.394;2022-09-24T03:03:31;13.80;99.90
23540;DHT22;11947;50.810;4.394;2022-09-24T03:05:57;13.90;99.90
23540;DHT22;11947;50.810;4.394;2022-09-24T03:08:24;13.90;99.90
23540;DHT22;11947;50.810;4.394;2022-09-24T03:10:51;14.00;99.90
23540;DHT22;11947;50.810;4.394;2022-09-24T03:13:21;13.90;99.90
23540;DHT22;11947;50.810;4.394;2022-09-24T03:15:52;14.10;99.90
23540;DHT22;11947;50.810;4.394;2022-09-24T03:18:35;14.10;99.90
23540;DHT22;11947;50.810;4.394;2022-09-24T03:21:04;13.90;99.90
23540;DHT22;11947;50.810;4.394;2022-09-24T03:23:35;14.10;99.90
23540;DHT22;11947;50.810;4.394;2022-09-24T03:26:01;14.10;99.90
23540;DHT22;11947;50.810;4.394;2022-09-24T03:28:27;14.10;99.90
23540;DHT22;11947;50.810;4.394;2022-09-24T03:30:53;14.00;99.90
23540;DHT22;11947;50.810;4.394;2022-09-24T03:33:44;14.00;99.90
23540;DHT22;11947;50.810;4.394;2022-09-24T03:36:49;13.80;99.90
23540;DHT22;11947;50.810;4.394;2022-09-24T03:39:14;13.90;99.90
23540;DHT22;11947;50.810;4.394;2022-09-24T03:41:40;13.80;99.90
23540;DHT22;11947;50.810;4.394;2022-09-24T03:44:06;13.90;99.90
23540;DHT22;11947;50.810;4.394;2022-09-24T03:46:40;13.90;99.90
23540;DHT22;11947;50.810;4.394;2022-09-24T03:49:35;13.80;99.90
23540;DHT22;11947;50.810;4.394;2022-09-24T03:52:07;13.90;99.90
23540;DHT22;11947;50.810;4.394;2022-09-24T03:54:37;13.80;99.90
23540;DHT22;11947;50.810;4.394;2022-09-24T03:57:03;13.90;99.90
23540;DHT22;11947;50.810;4.394;2022-09-24T03:59:28;13.90;99.90
23540;DHT22;11947;50.810;4.394;2022-09-24T04:02:14;13.70;99.90
23540;DHT22;11947;50.810;4.394;2022-09-24T04:04:41;13.70;99.90
23540;DHT22;11947;50.810;4.394;2022-09-24T04:07:42;13.80;99.90
23540;DHT22;11947;50.810;4.394;2022-09-24T04:10:11;13.60;99.90
23540;DHT22;11947;50.810;4.394;2022-09-24T04:12:45;13.70;99.90
23540;DHT22;11947;50.810;4.394;2022-09-24T04:15:10;13.70;99.90
23540;DHT22;11947;50.810;4.394;2022-09-24T04:18:19;13.80;99.90
23540;DHT22;11947;50.810;4.394;2022-09-24T04:21:07;13.80;99.90
23540;DHT22;11947;50.810;4.394;2022-09-24T04:23:33;13.80;99.90
23540;DHT22;11947;50.810;4.394;2022-09-24T04:26:05;13.80;99.90
23540;DHT22;11947;50.810;4.394;2022-09-24T04:30:58;13.70;99.90
23540;DHT22;11947;50.810;4.394;2022-09-24T04:33:26;13.70;99.90
23540;DHT22;11947;50.810;4.394;2022-09-24T04:35:55;13.80;99.90
23540;DHT22;11947;50.810;4.394;2022-09-24T04:38:21;13.70;99.90
23540;DHT22;11947;50.810;4.394;2022-09-24T04:40:48;13.80;99.90
23540;DHT22;11947;50.810;4.394;2022-09-24T04:43:30;13.70;99.90
23540;DHT22;11947;50.810;4.394;2022-09-24T04:45:59;13.70;99.90
23540;DHT22;11947;50.810;4.394;2022-09-24T04:48:26;13.70;99.90
23540;DHT22;11947;50.810;4.394;2022-09-24T04:50:52;13.60;99.90
23540;DHT22;11947;50.810;4.394;2022-09-24T04:53:20;13.70;99.90
23540;DHT22;11947;50.810;4.394;2022-09-24T04:55:48;13.60;99.90
23540;DHT22;11947;50.810;4.394;2022-09-24T04:58:14;13.60;99.90
23540;DHT22;11947;50.810;4.394;2022-09-24T05:00:41;13.60;99.90
23540;DHT22;11947;50.810;4.394;2022-09-24T05:03:30;13.60;99.90
23540;DHT22;11947;50.810;4.394;2022-09-24T05:06:19;13.60;99.90
23540;DHT22;11947;50.810;4.394;2022-09-24T05:08:44;13.60;99.90
23540;DHT22;11947;50.810;4.394;2022-09-24T05:11:52;13.70;99.90
23540;DHT22;11947;50.810;4.394;2022-09-24T05:14:18;13.70;99.90
23540;DHT22;11947;50.810;4.394;2022-09-24T05:17:29;13.80;99.90
23540;DHT22;11947;50.810;4.394;2022-09-24T05:19:55;13.70;99.90
23540;DHT22;11947;50.810;4.394;2022-09-24T05:22:22;13.70;99.90
23540;DHT22;11947;50.810;4.394;2022-09-24T05:24:48;13.80;99.90
23540;DHT22;11947;50.810;4.394;2022-09-24T05:27:14;13.80;99.90
23540;DHT22;11947;50.810;4.394;2022-09-24T05:29:41;13.70;99.90
23540;DHT22;11947;50.810;4.394;2022-09-24T05:32:28;13.60;99.90
23540;DHT22;11947;50.810;4.394;2022-09-24T05:34:57;13.70;99.90
23540;DHT22;11947;50.810;4.394;2022-09-24T05:37:23;13.70;99.90
23540;DHT22;11947;50.810;4.394;2022-09-24T05:39:49;13.60;99.90
23540;DHT22;11947;50.810;4.394;2022-09-24T05:42:14;13.70;99.90
23540;DHT22;11947;50.810;4.394;2022-09-24T05:44:41;13.70;99.90
23540;DHT22;11947;50.810;4.394;2022-09-24T05:47:08;13.70;99.90
23540;DHT22;11947;50.810;4.394;2022-09-24T05:51:59;13.90;99.90
23540;DHT22;11947;50.810;4.394;2022-09-24T05:54:24;13.90;99.90
23540;DHT22;11947;50.810;4.394;2022-09-24T05:56:50;13.80;99.90
23540;DHT22;11947;50.810;4.394;2022-09-24T05:59:16;13.80;99.90
23540;DHT22;11947;50.810;4.394;2022-09-24T06:01:43;13.90;99.90
23540;DHT22;11947;50.810;4.394;2022-09-24T06:04:09;13.80;99.90
23540;DHT22;11947;50.810;4.394;2022-09-24T06:06:37;13.90;99.90
23540;DHT22;11947;50.810;4.394;2022-09-24T06:09:02;13.90;99.90
23540;DHT22;11947;50.810;4.394;2022-09-24T06:11:30;13.90;99.90
23540;DHT22;11947;50.810;4.394;2022-09-24T06:14:00;14.00;99.90
23540;DHT22;11947;50.810;4.394;2022-09-24T06:16:33;14.00;99.90
23540;DHT22;11947;50.810;4.394;2022-09-24T06:18:59;14.00;99.90
23540;DHT22;11947;50.810;4.394;2022-09-24T06:21:24;13.90;99.90
23540;DHT22;11947;50.810;4.394;2022-09-24T06:23:50;14.00;99.90
23540;DHT22;11947;50.810;4.394;2022-09-24T06:26:15;14.00;99.90
23540;DHT22;11947;50.810;4.394;2022-09-24T06:28:41;14.00;99.90
23540;DHT22;11947;50.810;4.394;2022-09-24T06:31:07;14.00;99.90
23540;DHT22;11947;50.810;4.394;2022-09-24T06:33:34;13.90;99.90
23540;DHT22;11947;50.810;4.394;2022-09-24T06:36:01;13.90;99.90
23540;DHT22;11947;50.810;4.394;2022-09-24T06:38:28;14.00;99.90
23540;DHT22;11947;50.810;4.394;2022-09-24T06:40:58;14.00;99.90
23540;DHT22;11947;50.810;4.394;2022-09-24T06:43:24;14.00;99.90
23540;DHT22;11947;50.810;4.394;2022-09-24T06:45:49;14.10;99.90
23540;DHT22;11947;50.810;4.394;2022-09-24T06:48:15;14.20;99.90
23540;DHT22;11947;50.810;4.394;2022-09-24T06:50:43;14.10;99.90
23540;DHT22;11947;50.810;4.394;2022-09-24T06:53:11;14.10;99.90
23540;DHT22;11947;50.810;4.394;2022-09-24T06:55:37;14.10;99.90
23540;DHT22;11947;50.810;4.394;2022-09-24T06:58:15;14.10;99.90
23540;DHT22;11947;50.810;4.394;2022-09-24T07:00:41;14.20;99.90
23540;DHT22;11947;50.810;4.394;2022-09-24T07:03:13;14.10;99.90
23540;DHT22;11947;50.810;4.394;2022-09-24T07:05:39;14.20;99.90
23540;DHT22;11947;50.810;4.394;2022-09-24T07:08:05;14.20;99.90
23540;DHT22;11947;50.810;4.394;2022-09-24T07:10:30;14.40;99.90
23540;DHT22;11947;50.810;4.394;2022-09-24T07:12:56;14.40;99.90
23540;DHT22;11947;50.810;4.394;2022-09-24T07:15:22;14.40;99.90
23540;DHT22;11947;50.810;4.394;2022-09-24T07:17:47;14.30;99.90
23540;DHT22;11947;50.810;4.394;2022-09-24T07:20:13;14.30;99.90
23540;DHT22;11947;50.810;4.394;2022-09-24T07:22:40;14.30;99.90
23540;DHT22;11947;50.810;4.394;2022-09-24T07:25:10;14.20;99.90
23540;DHT22;11947;50.810;4.394;2022-09-24T07:27:37;14.10;99.90
23540;DHT22;11947;50.810;4.394;2022-09-24T07:30:07;14.00;99.90
23540;DHT22;11947;50.810;4.394;2022-09-24T07:32:34;13.90;99.90
23540;DHT22;11947;50.810;4.394;2022-09-24T07:35:00;13.90;99.90
23540;DHT22;11947;50.810;4.394;2022-09-24T07:37:25;14.00;99.90
23540;DHT22;11947;50.810;4.394;2022-09-24T07:39:51;13.80;99.90
23540;DHT22;11947;50.810;4.394;2022-09-24T07:42:17;13.90;99.90
23540;DHT22;11947;50.810;4.394;2022-09-24T07:44:42;13.80;99.90
23540;DHT22;11947;50.810;4.394;2022-09-24T07:47:08;13.70;99.90
23540;DHT22;11947;50.810;4.394;2022-09-24T07:49:34;13.90;99.90
23540;DHT22;11947;50.810;4.394;2022-09-24T07:52:01;13.90;99.90
23540;DHT22;11947;50.810;4.394;2022-09-24T07:54:26;14.10;99.90
23540;DHT22;11947;50.810;4.394;2022-09-24T07:56:54;14.10;99.90
23540;DHT22;11947;50.810;4.394;2022-09-24T07:59:20;14.00;99.90
23540;DHT22;11947;50.810;4.394;2022-09-24T08:01:45;14.00;99.90
23540;DHT22;11947;50.810;4.394;2022-09-24T08:04:11;14.10;99.90
23540;DHT22;11947;50.810;4.394;2022-09-24T08:06:37;14.10;99.90
23540;DHT22;11947;50.810;4.394;2022-09-24T08:09:03;14.30;99.90
23540;DHT22;11947;50.810;4.394;2022-09-24T08:11:30;14.30;99.90
23540;DHT22;11947;50.810;4.394;2022-09-24T08:13:56;14.30;99.90
23540;DHT22;11947;50.810;4.394;2022-09-24T08:16:23;14.40;99.90
23540;DHT22;11947;50.810;4.394;2022-09-24T08:18:50;14.50;99.90
23540;DHT22;11947;50.810;4.394;2022-09-24T08:21:16;14.60;99.90
23540;DHT22;11947;50.810;4.394;2022-09-24T08:23:42;14.60;99.90
23540;DHT22;11947;50.810;4.394;2022-09-24T08:26:09;14.60;99.90
23540;DHT22;11947;50.810;4.394;2022-09-24T08:28:58;14.60;99.90
23540;DHT22;11947;50.810;4.394;2022-09-24T08:31:30;14.50;99.90
23540;DHT22;11947;50.810;4.394;2022-09-24T08:33:56;14.50;99.90
23540;DHT22;11947;50.810;4.394;2022-09-24T08:36:23;14.60;99.90
23540;DHT22;11947;50.810;4.394;2022-09-24T08:38:54;14.50;99.90
23540;DHT22;11947;50.810;4.394;2022-09-24T08:41:43;14.50;99.90
23540;DHT22;11947;50.810;4.394;2022-09-24T08:44:41;14.40;99.90
23540;DHT22;11947;50.810;4.394;2022-09-24T08:50:25;14.50;99.90
23540;DHT22;11947;50.810;4.394;2022-09-24T08:53:15;14.50;99.90
23540;DHT22;11947;50.810;4.394;2022-09-24T08:56:06;14.50;99.90
23540;DHT22;11947;50.810;4.394;2022-09-24T08:58:58;14.50;99.90
23540;DHT22;11947;50.810;4.394;2022-09-24T09:01:44;14.70;99.90
23540;DHT22;11947;50.810;4.394;2022-09-24T09:04:30;14.80;99.90
23540;DHT22;11947;50.810;4.394;2022-09-24T09:07:13;14.80;99.90
23540;DHT22;11947;50.810;4.394;2022-09-24T09:10:21;14.80;99.90
23540;DHT22;11947;50.810;4.394;2022-09-24T09:15:45;14.70;99.90
23540;DHT22;11947;50.810;4.394;2022-09-24T09:20:48;14.70;99.90
23540;DHT22;11947;50.810;4.394;2022-09-24T09:23:46;14.70;99.90
23540;DHT22;11947;50.810;4.394;2022-09-24T09:26:12;14.90;99.90
23540;DHT22;11947;50.810;4.394;2022-09-24T09:28:41;14.80;99.90
23540;DHT22;11947;50.810;4.394;2022-09-24T09:31:25;14.70;99.90
23540;DHT22;11947;50.810;4.394;2022-09-24T09:34:21;14.80;99.90
23540;DHT22;11947;50.810;4.394;2022-09-24T09:39:44;15.00;99.90
23540;DHT22;11947;50.810;4.394;2022-09-24T09:42:31;15.10;99.90
23540;DHT22;11947;50.810;4.394;2022-09-24T09:48:05;14.90;99.90
23540;DHT22;11947;50.810;4.394;2022-09-24T09:50:44;14.80;99.90
23540;DHT22;11947;50.810;4.394;2022-09-24T09:53:27;14.80;99.90
23540;DHT22;11947;50.810;4.394;2022-09-24T09:56:02;15.00;99.90
23540;DHT22;11947;50.810;4.394;2022-09-24T09:58:42;15.00;99.90
23540;DHT22;11947;50.810;4.394;2022-09-24T10:01:13;14.90;99.90
23540;DHT22;11947;50.810;4.394;2022-09-24T10:08:47;14.90;99.90
23540;DHT22;11947;50.810;4.394;2022-09-24T10:11:22;14.90;99.90
23540;DHT22;11947;50.810;4.394;2022-09-24T10:16:18;14.90;99.90
23540;DHT22;11947;50.810;4.394;2022-09-24T10:18:49;14.80;99.90
23540;DHT22;11947;50.810;4.394;2022-09-24T10:21:30;14.90;99.90
23540;DHT22;11947;50.810;4.394;2022-09-24T10:24:00;14.90;99.90
23540;DHT22;11947;50.810;4.394;2022-09-24T10:26:38;15.10;99.90
23540;DHT22;11947;50.810;4.394;2022-09-24T10:29:31;15.20;99.90
23540;DHT22;11947;50.810;4.394;2022-09-24T10:32:13;15.20;99.90
23540;DHT22;11947;50.810;4.394;2022-09-24T10:34:40;15.30;99.90
23540;DHT22;11947;50.810;4.394;2022-09-24T10:37:15;15.40;99.90
23540;DHT22;11947;50.810;4.394;2022-09-24T10:39:43;15.50;99.90
23540;DHT22;11947;50.810;4.394;2022-09-24T10:42:23;15.40;99.90
23540;DHT22;11947;50.810;4.394;2022-09-24T10:44:49;15.50;99.90
23540;DHT22;11947;50.810;4.394;2022-09-24T10:52:56;15.70;99.90
23540;DHT22;11947;50.810;4.394;2022-09-24T10:55:38;15.70;99.90
23540;DHT22;11947;50.810;4.394;2022-09-24T11:12:13;15.20;99.90
23540;DHT22;11947;50.810;4.394;2022-09-24T11:15:20;15.20;99.90
23540;DHT22;11947;50.810;4.394;2022-09-24T11:20:39;15.20;99.90
23540;DHT22;11947;50.810;4.394;2022-09-24T11:23:48;15.30;99.90
23540;DHT22;11947;50.810;4.394;2022-09-24T11:38:26;15.40;99.90
23540;DHT22;11947;50.810;4.394;2022-09-24T11:51:58;15.80;99.90
23540;DHT22;11947;50.810;4.394;2022-09-24T11:57:22;15.80;99.90
23540;DHT22;11947;50.810;4.394;2022-09-24T12:00:11;15.70;99.90
23540;DHT22;11947;50.810;4.394;2022-09-24T12:03:00;15.90;99.90
23540;DHT22;11947;50.810;4.394;2022-09-24T12:05:44;16.00;99.90
23540;DHT22;11947;50.810;4.394;2022-09-24T12:16:14;15.70;99.90
23540;DHT22;11947;50.810;4.394;2022-09-24T12:18:57;15.70;99.90
23540;DHT22;11947;50.810;4.394;2022-09-24T12:21:31;15.70;99.90
23540;DHT22;11947;50.810;4.394;2022-09-24T12:26:47;15.40;99.90
23540;DHT22;11947;50.810;4.394;2022-09-24T12:35:30;15.40;99.90
23540;DHT22;11947;50.810;4.394;2022-09-24T12:38:17;15.40;99.90
23540;DHT22;11947;50.810;4.394;2022-09-24T12:41:15;15.40;99.90
23540;DHT22;11947;50.810;4.394;2022-09-24T12:46:24;15.40;99.90
23540;DHT22;11947;50.810;4.394;2022-09-24T12:48:52;15.40;99.90
23540;DHT22;11947;50.810;4.394;2022-09-24T12:51:20;15.50;99.90
23540;DHT22;11947;50.810;4.394;2022-09-24T12:54:05;15.40;99.90
23540;DHT22;11947;50.810;4.394;2022-09-24T12:56:31;15.50;99.90
23540;DHT22;11947;50.810;4.394;2022-09-24T12:58:57;15.50;99.90
23540;DHT22;11947;50.810;4.394;2022-09-24T13:04:02;15.50;99.90
23540;DHT22;11947;50.810;4.394;2022-09-24T13:06:33;15.60;99.90
23540;DHT22;11947;50.810;4.394;2022-09-24T13:09:01;15.60;99.90
23540;DHT22;11947;50.810;4.394;2022-09-24T13:11:36;15.70;99.90
23540;DHT22;11947;50.810;4.394;2022-09-24T13:16:41;15.80;99.90
23540;DHT22;11947;50.810;4.394;2022-09-24T13:19:39;15.70;99.90
23540;DHT22;11947;50.810;4.394;2022-09-24T13:22:17;15.80;99.90
23540;DHT22;11947;50.810;4.394;2022-09-24T13:24:48;15.70;99.90
23540;DHT22;11947;50.810;4.394;2022-09-24T13:32:33;15.90;99.90
23540;DHT22;11947;50.810;4.394;2022-09-24T13:35:08;16.00;99.90
23540;DHT22;11947;50.810;4.394;2022-09-24T13:37:40;16.00;99.90
23540;DHT22;11947;50.810;4.394;2022-09-24T13:40:15;16.00;99.90
23540;DHT22;11947;50.810;4.394;2022-09-24T13:42:50;15.90;99.90
23540;DHT22;11947;50.810;4.394;2022-09-24T13:45:20;15.90;99.90
23540;DHT22;11947;50.810;4.394;2022-09-24T13:47:48;15.80;99.90
23540;DHT22;11947;50.810;4.394;2022-09-24T13:50:25;15.70;99.90
23540;DHT22;11947;50.810;4.394;2022-09-24T13:55:51;15.90;99.90
23540;DHT22;11947;50.810;4.394;2022-09-24T13:58:37;15.80;99.90
23540;DHT22;11947;50.810;4.394;2022-09-24T14:01:14;15.80;99.90
23540;DHT22;11947;50.810;4.394;2022-09-24T14:03:41;15.90;99.90
23540;DHT22;11947;50.810;4.394;2022-09-24T14:06:17;15.80;99.90
23540;DHT22;11947;50.810;4.394;2022-09-24T14:08:46;15.70;99.90
23540;DHT22;11947;50.810;4.394;2022-09-24T14:11:14;15.80;99.90
23540;DHT22;11947;50.810;4.394;2022-09-24T14:13:41;15.80;99.90
23540;DHT22;11947;50.810;4.394;2022-09-24T14:16:14;15.90;99.90
23540;DHT22;11947;50.810;4.394;2022-09-24T14:18:40;15.90;99.90
23540;DHT22;11947;50.810;4.394;2022-09-24T14:21:15;15.90;99.90
23540;DHT22;11947;50.810;4.394;2022-09-24T14:26:30;15.90;99.90
23540;DHT22;11947;50.810;4.394;2022-09-24T14:28:59;15.90;99.90
23540;DHT22;11947;50.810;4.394;2022-09-24T14:31:26;15.80;99.90
23540;DHT22;11947;50.810;4.394;2022-09-24T14:33:52;15.90;99.90
23540;DHT22;11947;50.810;4.394;2022-09-24T14:36:18;15.90;99.90
23540;DHT22;11947;50.810;4.394;2022-09-24T14:39:00;15.80;99.90
23540;DHT22;11947;50.810;4.394;2022-09-24T14:41:31;15.70;99.90
23540;DHT22;11947;50.810;4.394;2022-09-24T14:44:02;15.60;99.90
23540;DHT22;11947;50.810;4.394;2022-09-24T14:46:33;15.50;99.90
23540;DHT22;11947;50.810;4.394;2022-09-24T14:51:57;15.40;99.90
23540;DHT22;11947;50.810;4.394;2022-09-24T14:54:37;15.50;99.90
23540;DHT22;11947;50.810;4.394;2022-09-24T14:57:24;15.50;99.90
23540;DHT22;11947;50.810;4.394;2022-09-24T14:59:50;15.50;99.90
23540;DHT22;11947;50.810;4.394;2022-09-24T15:04:56;15.50;99.90
23540;DHT22;11947;50.810;4.394;2022-09-24T15:07:24;15.60;99.90
23540;DHT22;11947;50.810;4.394;2022-09-24T15:09:56;15.60;99.90
23540;DHT22;11947;50.810;4.394;2022-09-24T15:12:27;15.60;99.90
23540;DHT22;11947;50.810;4.394;2022-09-24T15:15:00;15.60;99.90
23540;DHT22;11947;50.810;4.394;2022-09-24T15:17:34;15.50;99.90
23540;DHT22;11947;50.810;4.394;2022-09-24T15:20:01;15.50;99.90
23540;DHT22;11947;50.810;4.394;2022-09-24T15:22:28;15.40;99.90
23540;DHT22;11947;50.810;4.394;2022-09-24T15:25:00;15.40;99.90
23540;DHT22;11947;50.810;4.394;2022-09-24T15:27:30;15.40;99.90
23540;DHT22;11947;50.810;4.394;2022-09-24T15:29:58;15.40;99.90
23540;DHT22;11947;50.810;4.394;2022-09-24T15:32:29;15.50;99.90
23540;DHT22;11947;50.810;4.394;2022-09-24T15:34:56;15.50;99.90
23540;DHT22;11947;50.810;4.394;2022-09-24T15:37:24;15.60;99.90
23540;DHT22;11947;50.810;4.394;2022-09-24T15:39:51;15.60;99.90
23540;DHT22;11947;50.810;4.394;2022-09-24T15:42:22;15.70;99.90
23540;DHT22;11947;50.810;4.394;2022-09-24T15:44:48;15.70;99.90
23540;DHT22;11947;50.810;4.394;2022-09-24T15:47:16;15.70;99.90
23540;DHT22;11947;50.810;4.394;2022-09-24T15:49:42;15.70;99.90
23540;DHT22;11947;50.810;4.394;2022-09-24T15:52:20;15.70;99.90
23540;DHT22;11947;50.810;4.394;2022-09-24T15:54:59;15.60;99.90
23540;DHT22;11947;50.810;4.394;2022-09-24T15:57:26;15.70;99.90
23540;DHT22;11947;50.810;4.394;2022-09-24T15:59:54;15.50;99.90
23540;DHT22;11947;50.810;4.394;2022-09-24T16:02:33;15.50;99.90
23540;DHT22;11947;50.810;4.394;2022-09-24T16:05:19;15.40;99.90
23540;DHT22;11947;50.810;4.394;2022-09-24T16:07:48;15.40;99.90
23540;DHT22;11947;50.810;4.394;2022-09-24T16:10:15;15.40;99.90
23540;DHT22;11947;50.810;4.394;2022-09-24T16:12:41;15.40;99.90
23540;DHT22;11947;50.810;4.394;2022-09-24T16:15:11;15.40;99.90
23540;DHT22;11947;50.810;4.394;2022-09-24T16:17:37;15.40;99.90
23540;DHT22;11947;50.810;4.394;2022-09-24T16:20:03;15.30;99.90
23540;DHT22;11947;50.810;4.394;2022-09-24T16:22:29;15.20;99.90
23540;DHT22;11947;50.810;4.394;2022-09-24T16:24:59;15.10;99.90
23540;DHT22;11947;50.810;4.394;2022-09-24T16:27:25;15.20;99.90
23540;DHT22;11947;50.810;4.394;2022-09-24T16:29:50;15.20;99.90
23540;DHT22;11947;50.810;4.394;2022-09-24T16:32:16;15.20;99.90
23540;DHT22;11947;50.810;4.394;2022-09-24T16:34:42;15.10;99.90
23540;DHT22;11947;50.810;4.394;2022-09-24T16:37:08;15.10;99.90
23540;DHT22;11947;50.810;4.394;2022-09-24T16:39:33;15.10;99.90
23540;DHT22;11947;50.810;4.394;2022-09-24T16:44:27;15.20;99.90
23540;DHT22;11947;50.810;4.394;2022-09-24T16:46:53;15.10;99.90
23540;DHT22;11947;50.810;4.394;2022-09-24T16:49:25;15.00;99.90
23540;DHT22;11947;50.810;4.394;2022-09-24T16:51:53;15.10;99.90
23540;DHT22;11947;50.810;4.394;2022-09-24T16:54:20;15.00;99.90
23540;DHT22;11947;50.810;4.394;2022-09-24T16:56:50;14.90;99.90
23540;DHT22;11947;50.810;4.394;2022-09-24T16:59:33;14.80;99.90
23540;DHT22;11947;50.810;4.394;2022-09-24T17:02:02;14.70;99.90
23540;DHT22;11947;50.810;4.394;2022-09-24T17:04:31;14.70;99.90
23540;DHT22;11947;50.810;4.394;2022-09-24T17:07:22;14.60;99.90
23540;DHT22;11947;50.810;4.394;2022-09-24T17:09:48;14.50;99.90
23540;DHT22;11947;50.810;4.394;2022-09-24T17:12:52;14.60;99.90
23540;DHT22;11947;50.810;4.394;2022-09-24T17:15:18;14.50;99.90
23540;DHT22;11947;50.810;4.394;2022-09-24T17:17:50;14.50;99.90
23540;DHT22;11947;50.810;4.394;2022-09-24T17:20:19;14.20;99.90
23540;DHT22;11947;50.810;4.394;2022-09-24T17:22:53;14.30;99.90
23540;DHT22;11947;50.810;4.394;2022-09-24T17:25:25;14.20;99.90
23540;DHT22;11947;50.810;4.394;2022-09-24T17:27:55;14.30;99.90
23540;DHT22;11947;50.810;4.394;2022-09-24T17:30:20;14.30;99.90
23540;DHT22;11947;50.810;4.394;2022-09-24T17:32:53;14.30;99.90
23540;DHT22;11947;50.810;4.394;2022-09-24T17:35:20;14.20;99.90
23540;DHT22;11947;50.810;4.394;2022-09-24T17:37:47;14.20;99.90
23540;DHT22;11947;50.810;4.394;2022-09-24T17:40:13;14.30;99.90
23540;DHT22;11947;50.810;4.394;2022-09-24T17:42:40;14.10;99.90
23540;DHT22;11947;50.810;4.394;2022-09-24T17:45:10;14.10;99.90
23540;DHT22;11947;50.810;4.394;2022-09-24T17:47:35;14.10;99.90
23540;DHT22;11947;50.810;4.394;2022-09-24T17:50:20;13.90;99.90
23540;DHT22;11947;50.810;4.394;2022-09-24T17:52:48;14.10;99.90
23540;DHT22;11947;50.810;4.394;2022-09-24T17:55:15;14.20;99.90
23540;DHT22;11947;50.810;4.394;2022-09-24T17:58:00;14.10;99.90
23540;DHT22;11947;50.810;4.394;2022-09-24T18:00:26;14.10;99.90
23540;DHT22;11947;50.810;4.394;2022-09-24T18:02:54;14.10;99.90
23540;DHT22;11947;50.810;4.394;2022-09-24T18:06:00;14.10;99.90
23540;DHT22;11947;50.810;4.394;2022-09-24T18:08:42;14.10;99.90
23540;DHT22;11947;50.810;4.394;2022-09-24T18:14:28;14.00;99.90
23540;DHT22;11947;50.810;4.394;2022-09-24T18:16:53;13.90;99.90
23540;DHT22;11947;50.810;4.394;2022-09-24T18:19:20;14.00;99.90
23540;DHT22;11947;50.810;4.394;2022-09-24T18:21:47;13.90;99.90
23540;DHT22;11947;50.810;4.394;2022-09-24T18:24:17;14.10;99.90
23540;DHT22;11947;50.810;4.394;2022-09-24T18:26:43;14.20;99.90
23540;DHT22;11947;50.810;4.394;2022-09-24T18:29:15;14.20;99.90
23540;DHT22;11947;50.810;4.394;2022-09-24T18:34:36;13.90;99.90
23540;DHT22;11947;50.810;4.394;2022-09-24T18:43:29;13.90;99.90
23540;DHT22;11947;50.810;4.394;2022-09-24T18:46:06;14.00;99.90
23540;DHT22;11947;50.810;4.394;2022-09-24T18:48:40;14.00;99.90
23540;DHT22;11947;50.810;4.394;2022-09-24T18:54:11;13.90;99.90
23540;DHT22;11947;50.810;4.394;2022-09-24T19:00:24;14.10;99.90
23540;DHT22;11947;50.810;4.394;2022-09-24T19:03:08;14.10;99.90
23540;DHT22;11947;50.810;4.394;2022-09-24T19:06:12;14.10;99.90
23540;DHT22;11947;50.810;4.394;2022-09-24T19:08:46;14.00;99.90
23540;DHT22;11947;50.810;4.394;2022-09-24T19:11:21;13.90;99.90
23540;DHT22;11947;50.810;4.394;2022-09-24T19:13:50;13.80;99.90
23540;DHT22;11947;50.810;4.394;2022-09-24T19:16:19;13.90;99.90
23540;DHT22;11947;50.810;4.394;2022-09-24T19:18:45;13.80;99.90
23540;DHT22;11947;50.810;4.394;2022-09-24T19:28:52;13.80;99.90
23540;DHT22;11947;50.810;4.394;2022-09-24T19:43:56;13.80;99.90
23540;DHT22;11947;50.810;4.394;2022-09-24T19:47:09;13.60;99.90
23540;DHT22;11947;50.810;4.394;2022-09-24T20:49:27;13.50;99.90
23540;DHT22;11947;50.810;4.394;2022-09-24T20:52:13;13.50;99.90